sensor_id;sensor_type;location;lat;lon;timestamp;P1;durP1;ratioP1;P2;durP2;ratioP2
36789;SDS011;22740;52.182;8.780;2022-12-18T00:05:24;68.55;;;34.60;;
36789;SDS011;22740;52.182;8.780;2022-12-18T00:11:27;63.00;;;31.52;;
36789;SDS011;22740;52.182;8.780;2022-12-18T00:17:30;62.20;;;32.10;;
36789;SDS011;22740;52.182;8.780;2022-12-18T00:23:32;54.58;;;26.77;;
36789;SDS011;22740;52.182;8.780;2022-12-18T00:29:35;69.40;;;34.10;;
36789;SDS011;22740;52.182;8.780;2022-12-18T00:35:37;57.22;;;28.92;;
36789;SDS011;22740;52.182;8.780;2022-12-18T00:41:41;50.85;;;26.15;;
36789;SDS011;22740;52.182;8.780;2022-12-18T00:48:01;56.50;;;25.75;;
36789;SDS011;22740;52.182;8.780;2022-12-18T00:54:05;49.38;;;23.23;;
36789;SDS011;22740;52.182;8.780;2022-12-18T01:00:07;25.30;;;12.77;;
36789;SDS011;22740;52.182;8.780;2022-12-18T01:06:12;42.75;;;20.27;;
36789;SDS011;22740;52.182;8.780;2022-12-18T01:12:15;44.63;;;20.85;;
36789;SDS011;22740;52.182;8.780;2022-12-18T01:18:17;44.30;;;21.92;;
36789;SDS011;22740;52.182;8.780;2022-12-18T01:24:19;44.05;;;21.35;;
36789;SDS011;22740;52.182;8.780;2022-12-18T01:30:21;44.60;;;22.92;;
36789;SDS011;22740;52.182;8.780;2022-12-18T01:36:24;59.03;;;28.67;;
36789;SDS011;22740;52.182;8.780;2022-12-18T01:42:27;60.60;;;30.55;;
36789;SDS011;22740;52.182;8.780;2022-12-18T01:48:29;60.78;;;32.03;;
36789;SDS011;22740;52.182;8.780;2022-12-18T01:54:31;64.57;;;30.95;;
36789;SDS011;22740;52.182;8.780;2022-12-18T02:00:33;65.95;;;30.13;;
36789;SDS011;22740;52.182;8.780;2022-12-18T02:06:39;59.95;;;28.40;;
36789;SDS011;22740;52.182;8.780;2022-12-18T02:12:44;57.97;;;29.05;;
36789;SDS011;22740;52.182;8.780;2022-12-18T02:18:58;58.50;;;28.33;;
36789;SDS011;22740;52.182;8.780;2022-12-18T02:31:24;52.03;;;24.25;;
36789;SDS011;22740;52.182;8.780;2022-12-18T02:37:29;45.83;;;22.42;;
36789;SDS011;22740;52.182;8.780;2022-12-18T02:43:33;49.70;;;23.65;;
36789;SDS011;22740;52.182;8.780;2022-12-18T03:01:58;51.88;;;24.67;;
36789;SDS011;22740;52.182;8.780;2022-12-18T03:08:12;39.45;;;20.25;;
36789;SDS011;22740;52.182;8.780;2022-12-18T03:14:27;34.25;;;15.77;;
36789;SDS011;22740;52.182;8.780;2022-12-18T03:20:32;40.83;;;17.27;;
36789;SDS011;22740;52.182;8.780;2022-12-18T03:26:36;34.70;;;15.35;;
36789;SDS011;22740;52.182;8.780;2022-12-18T03:39:13;40.63;;;17.17;;
36789;SDS011;22740;52.182;8.780;2022-12-18T03:45:26;33.15;;;16.05;;
36789;SDS011;22740;52.182;8.780;2022-12-18T03:51:37;26.17;;;12.02;;
36789;SDS011;22740;52.182;8.780;2022-12-18T03:57:53;28.20;;;13.85;;
36789;SDS011;22740;52.182;8.780;2022-12-18T04:03:56;17.40;;;8.98;;
36789;SDS011;22740;52.182;8.780;2022-12-18T04:16:04;15.43;;;7.80;;
36789;SDS011;22740;52.182;8.780;2022-12-18T04:22:06;20.08;;;9.65;;
36789;SDS011;22740;52.182;8.780;2022-12-18T04:28:07;15.85;;;7.53;;
36789;SDS011;22740;52.182;8.780;2022-12-18T04:34:09;16.98;;;7.53;;
36789;SDS011;22740;52.182;8.780;2022-12-18T04:40:11;14.45;;;6.53;;
36789;SDS011;22740;52.182;8.780;2022-12-18T04:46:13;16.05;;;6.55;;
36789;SDS011;22740;52.182;8.780;2022-12-18T04:52:15;16.52;;;6.35;;
36789;SDS011;22740;52.182;8.780;2022-12-18T04:58:17;18.95;;;6.78;;
36789;SDS011;22740;52.182;8.780;2022-12-18T05:04:19;16.00;;;6.35;;
36789;SDS011;22740;52.182;8.780;2022-12-18T05:10:21;14.20;;;6.57;;
36789;SDS011;22740;52.182;8.780;2022-12-18T05:16:23;14.00;;;5.70;;
36789;SDS011;22740;52.182;8.780;2022-12-18T05:22:25;11.73;;;5.07;;
36789;SDS011;22740;52.182;8.780;2022-12-18T05:28:27;13.13;;;5.97;;
36789;SDS011;22740;52.182;8.780;2022-12-18T05:34:30;13.77;;;6.05;;
36789;SDS011;22740;52.182;8.780;2022-12-18T05:40:32;15.65;;;6.93;;
36789;SDS011;22740;52.182;8.780;2022-12-18T05:46:33;16.45;;;7.13;;
36789;SDS011;22740;52.182;8.780;2022-12-18T05:52:35;16.38;;;6.75;;
36789;SDS011;22740;52.182;8.780;2022-12-18T05:58:37;14.68;;;7.00;;
36789;SDS011;22740;52.182;8.780;2022-12-18T06:04:39;13.60;;;6.55;;
36789;SDS011;22740;52.182;8.780;2022-12-18T06:10:41;15.15;;;7.47;;
36789;SDS011;22740;52.182;8.780;2022-12-18T06:16:43;17.48;;;7.38;;
36789;SDS011;22740;52.182;8.780;2022-12-18T06:22:45;16.45;;;7.03;;
36789;SDS011;22740;52.182;8.780;2022-12-18T06:28:47;19.75;;;8.10;;
36789;SDS011;22740;52.182;8.780;2022-12-18T06:34:48;17.95;;;8.20;;
36789;SDS011;22740;52.182;8.780;2022-12-18T06:40:50;18.77;;;7.40;;
36789;SDS011;22740;52.182;8.780;2022-12-18T06:46:52;14.85;;;7.10;;
36789;SDS011;22740;52.182;8.780;2022-12-18T06:52:54;18.48;;;8.52;;
36789;SDS011;22740;52.182;8.780;2022-12-18T06:58:55;19.60;;;8.25;;
36789;SDS011;22740;52.182;8.780;2022-12-18T07:04:57;16.38;;;7.55;;
36789;SDS011;22740;52.182;8.780;2022-12-18T07:11:02;17.00;;;7.43;;
36789;SDS011;22740;52.182;8.780;2022-12-18T07:17:04;19.02;;;9.05;;
36789;SDS011;22740;52.182;8.780;2022-12-18T07:23:06;25.95;;;10.52;;
36789;SDS011;22740;52.182;8.780;2022-12-18T07:29:08;23.83;;;8.68;;
36789;SDS011;22740;52.182;8.780;2022-12-18T07:35:10;18.75;;;8.52;;
36789;SDS011;22740;52.182;8.780;2022-12-18T07:41:12;12.30;;;6.13;;
36789;SDS011;22740;52.182;8.780;2022-12-18T07:47:14;16.17;;;6.18;;
36789;SDS011;22740;52.182;8.780;2022-12-18T07:53:16;13.82;;;5.57;;
36789;SDS011;22740;52.182;8.780;2022-12-18T07:59:18;15.68;;;8.00;;
36789;SDS011;22740;52.182;8.780;2022-12-18T08:05:20;20.13;;;8.63;;
36789;SDS011;22740;52.182;8.780;2022-12-18T08:11:22;19.08;;;7.10;;
36789;SDS011;22740;52.182;8.780;2022-12-18T08:17:26;23.92;;;9.30;;
36789;SDS011;22740;52.182;8.780;2022-12-18T08:23:27;19.08;;;9.45;;
36789;SDS011;22740;52.182;8.780;2022-12-18T08:29:29;19.02;;;8.95;;
36789;SDS011;22740;52.182;8.780;2022-12-18T08:35:34;16.13;;;8.07;;
36789;SDS011;22740;52.182;8.780;2022-12-18T08:41:45;16.63;;;8.07;;
36789;SDS011;22740;52.182;8.780;2022-12-18T08:48:10;23.70;;;8.98;;
36789;SDS011;22740;52.182;8.780;2022-12-18T08:54:12;19.92;;;8.15;;
36789;SDS011;22740;52.182;8.780;2022-12-18T09:00:15;13.75;;;6.20;;
36789;SDS011;22740;52.182;8.780;2022-12-18T09:06:18;14.63;;;6.45;;
36789;SDS011;22740;52.182;8.780;2022-12-18T09:12:21;11.40;;;5.22;;
36789;SDS011;22740;52.182;8.780;2022-12-18T09:18:23;9.05;;;4.18;;
36789;SDS011;22740;52.182;8.780;2022-12-18T09:24:25;10.20;;;4.22;;
36789;SDS011;22740;52.182;8.780;2022-12-18T09:30:27;6.57;;;3.70;;
36789;SDS011;22740;52.182;8.780;2022-12-18T09:36:29;9.30;;;3.83;;
36789;SDS011;22740;52.182;8.780;2022-12-18T09:42:31;7.03;;;3.30;;
36789;SDS011;22740;52.182;8.780;2022-12-18T09:48:38;10.35;;;3.42;;
36789;SDS011;22740;52.182;8.780;2022-12-18T09:54:44;8.20;;;3.10;;
36789;SDS011;22740;52.182;8.780;2022-12-18T10:00:54;6.30;;;2.95;;
36789;SDS011;22740;52.182;8.780;2022-12-18T10:07:44;9.38;;;2.80;;
36789;SDS011;22740;52.182;8.780;2022-12-18T10:13:29;5.65;;;2.33;;
36789;SDS011;22740;52.182;8.780;2022-12-18T10:19:38;5.47;;;2.60;;
36789;SDS011;22740;52.182;8.780;2022-12-18T10:32:03;4.65;;;2.17;;
36789;SDS011;22740;52.182;8.780;2022-12-18T10:38:07;5.72;;;2.38;;
36789;SDS011;22740;52.182;8.780;2022-12-18T10:44:23;5.40;;;2.03;;
36789;SDS011;22740;52.182;8.780;2022-12-18T10:50:36;8.63;;;2.03;;
36789;SDS011;22740;52.182;8.780;2022-12-18T11:03:44;5.57;;;2.05;;
36789;SDS011;22740;52.182;8.780;2022-12-18T11:10:15;6.18;;;2.42;;
36789;SDS011;22740;52.182;8.780;2022-12-18T11:22:32;5.35;;;1.92;;
36789;SDS011;22740;52.182;8.780;2022-12-18T11:28:40;6.22;;;2.65;;
36789;SDS011;22740;52.182;8.780;2022-12-18T11:34:48;7.53;;;2.53;;
36789;SDS011;22740;52.182;8.780;2022-12-18T11:41:04;5.22;;;2.75;;
36789;SDS011;22740;52.182;8.780;2022-12-18T11:53:24;5.78;;;2.50;;
36789;SDS011;22740;52.182;8.780;2022-12-18T12:18:29;5.55;;;2.85;;
36789;SDS011;22740;52.182;8.780;2022-12-18T12:25:25;5.55;;;2.25;;
36789;SDS011;22740;52.182;8.780;2022-12-18T12:31:46;9.47;;;3.10;;
36789;SDS011;22740;52.182;8.780;2022-12-18T12:38:16;6.72;;;2.63;;
36789;SDS011;22740;52.182;8.780;2022-12-18T12:44:27;6.93;;;3.00;;
36789;SDS011;22740;52.182;8.780;2022-12-18T12:50:33;5.63;;;2.88;;
36789;SDS011;22740;52.182;8.780;2022-12-18T12:56:40;5.50;;;2.90;;
36789;SDS011;22740;52.182;8.780;2022-12-18T13:02:50;8.45;;;2.75;;
36789;SDS011;22740;52.182;8.780;2022-12-18T13:09:04;7.00;;;2.55;;
36789;SDS011;22740;52.182;8.780;2022-12-18T13:15:29;5.95;;;2.95;;
36789;SDS011;22740;52.182;8.780;2022-12-18T13:21:39;6.32;;;3.20;;
36789;SDS011;22740;52.182;8.780;2022-12-18T13:46:42;7.40;;;3.70;;
36789;SDS011;22740;52.182;8.780;2022-12-18T13:52:46;7.82;;;3.35;;
36789;SDS011;22740;52.182;8.780;2022-12-18T14:11:26;4.13;;;2.15;;
36789;SDS011;22740;52.182;8.780;2022-12-18T14:17:30;6.60;;;3.10;;
36789;SDS011;22740;52.182;8.780;2022-12-18T14:23:35;5.90;;;3.13;;
36789;SDS011;22740;52.182;8.780;2022-12-18T14:29:40;7.70;;;3.20;;
36789;SDS011;22740;52.182;8.780;2022-12-18T14:35:53;6.35;;;2.75;;
36789;SDS011;22740;52.182;8.780;2022-12-18T14:41:58;7.03;;;3.15;;
36789;SDS011;22740;52.182;8.780;2022-12-18T14:47:59;8.10;;;3.30;;
36789;SDS011;22740;52.182;8.780;2022-12-18T14:54:03;8.15;;;3.33;;
36789;SDS011;22740;52.182;8.780;2022-12-18T15:00:20;6.00;;;3.38;;
36789;SDS011;22740;52.182;8.780;2022-12-18T15:06:34;8.98;;;3.80;;
36789;SDS011;22740;52.182;8.780;2022-12-18T15:18:50;8.68;;;3.78;;
36789;SDS011;22740;52.182;8.780;2022-12-18T15:24:53;7.38;;;3.63;;
36789;SDS011;22740;52.182;8.780;2022-12-18T15:31:06;8.82;;;3.70;;
36789;SDS011;22740;52.182;8.780;2022-12-18T15:37:23;8.38;;;4.13;;
36789;SDS011;22740;52.182;8.780;2022-12-18T15:43:25;8.73;;;4.07;;
36789;SDS011;22740;52.182;8.780;2022-12-18T15:49:37;9.55;;;4.47;;
36789;SDS011;22740;52.182;8.780;2022-12-18T15:55:40;8.05;;;4.10;;
36789;SDS011;22740;52.182;8.780;2022-12-18T16:02:01;9.20;;;4.25;;
36789;SDS011;22740;52.182;8.780;2022-12-18T16:08:04;11.05;;;4.95;;
36789;SDS011;22740;52.182;8.780;2022-12-18T16:14:16;10.48;;;5.00;;
36789;SDS011;22740;52.182;8.780;2022-12-18T16:20:21;10.13;;;4.63;;
36789;SDS011;22740;52.182;8.780;2022-12-18T16:26:23;9.75;;;5.18;;
36789;SDS011;22740;52.182;8.780;2022-12-18T16:32:25;10.32;;;4.57;;
36789;SDS011;22740;52.182;8.780;2022-12-18T16:38:27;8.52;;;4.70;;
36789;SDS011;22740;52.182;8.780;2022-12-18T16:44:29;9.93;;;5.15;;
36789;SDS011;22740;52.182;8.780;2022-12-18T16:50:31;10.27;;;5.43;;
36789;SDS011;22740;52.182;8.780;2022-12-18T16:56:33;9.80;;;5.25;;
36789;SDS011;22740;52.182;8.780;2022-12-18T17:02:35;11.43;;;5.43;;
36789;SDS011;22740;52.182;8.780;2022-12-18T17:08:37;13.20;;;5.78;;
36789;SDS011;22740;52.182;8.780;2022-12-18T17:14:39;11.77;;;5.93;;
36789;SDS011;22740;52.182;8.780;2022-12-18T17:20:41;13.43;;;5.60;;
36789;SDS011;22740;52.182;8.780;2022-12-18T17:26:43;8.95;;;4.97;;
36789;SDS011;22740;52.182;8.780;2022-12-18T17:32:47;12.88;;;6.32;;
36789;SDS011;22740;52.182;8.780;2022-12-18T17:38:52;10.20;;;5.72;;
36789;SDS011;22740;52.182;8.780;2022-12-18T17:44:56;13.10;;;5.80;;
36789;SDS011;22740;52.182;8.780;2022-12-18T17:51:01;12.38;;;6.18;;
36789;SDS011;22740;52.182;8.780;2022-12-18T17:57:04;13.02;;;5.80;;
36789;SDS011;22740;52.182;8.780;2022-12-18T18:03:06;14.43;;;6.50;;
36789;SDS011;22740;52.182;8.780;2022-12-18T18:09:08;17.55;;;6.47;;
36789;SDS011;22740;52.182;8.780;2022-12-18T18:15:17;12.00;;;5.82;;
36789;SDS011;22740;52.182;8.780;2022-12-18T18:21:19;13.50;;;6.82;;
36789;SDS011;22740;52.182;8.780;2022-12-18T18:27:21;17.27;;;6.97;;
36789;SDS011;22740;52.182;8.780;2022-12-18T18:33:23;14.52;;;7.28;;
36789;SDS011;22740;52.182;8.780;2022-12-18T18:39:25;12.98;;;6.93;;
36789;SDS011;22740;52.182;8.780;2022-12-18T18:45:27;12.35;;;6.70;;
36789;SDS011;22740;52.182;8.780;2022-12-18T18:51:29;12.77;;;6.88;;
36789;SDS011;22740;52.182;8.780;2022-12-18T18:57:35;14.15;;;7.20;;
36789;SDS011;22740;52.182;8.780;2022-12-18T19:03:37;14.02;;;6.80;;
36789;SDS011;22740;52.182;8.780;2022-12-18T19:09:40;16.17;;;6.82;;
36789;SDS011;22740;52.182;8.780;2022-12-18T19:15:42;15.77;;;7.38;;
36789;SDS011;22740;52.182;8.780;2022-12-18T19:21:43;14.95;;;7.45;;
36789;SDS011;22740;52.182;8.780;2022-12-18T19:27:45;17.20;;;8.07;;
36789;SDS011;22740;52.182;8.780;2022-12-18T19:33:47;19.50;;;8.13;;
36789;SDS011;22740;52.182;8.780;2022-12-18T19:39:49;20.85;;;9.13;;
36789;SDS011;22740;52.182;8.780;2022-12-18T19:45:54;17.88;;;8.60;;
36789;SDS011;22740;52.182;8.780;2022-12-18T19:51:56;19.23;;;9.00;;
36789;SDS011;22740;52.182;8.780;2022-12-18T19:57:58;20.92;;;9.63;;
36789;SDS011;22740;52.182;8.780;2022-12-18T20:04:00;17.85;;;9.57;;
36789;SDS011;22740;52.182;8.780;2022-12-18T20:10:06;20.13;;;9.50;;
36789;SDS011;22740;52.182;8.780;2022-12-18T20:16:09;24.75;;;10.57;;
36789;SDS011;22740;52.182;8.780;2022-12-18T20:22:12;20.88;;;9.95;;
36789;SDS011;22740;52.182;8.780;2022-12-18T20:28:14;22.88;;;10.15;;
36789;SDS011;22740;52.182;8.780;2022-12-18T20:34:16;21.92;;;10.07;;
36789;SDS011;22740;52.182;8.780;2022-12-18T20:40:18;19.48;;;9.63;;
36789;SDS011;22740;52.182;8.780;2022-12-18T20:46:20;21.17;;;10.45;;
36789;SDS011;22740;52.182;8.780;2022-12-18T20:52:22;23.17;;;10.68;;
36789;SDS011;22740;52.182;8.780;2022-12-18T20:58:24;23.15;;;11.27;;
36789;SDS011;22740;52.182;8.780;2022-12-18T21:04:25;21.73;;;11.27;;
36789;SDS011;22740;52.182;8.780;2022-12-18T21:10:27;20.77;;;10.13;;
36789;SDS011;22740;52.182;8.780;2022-12-18T21:16:30;25.40;;;11.80;;
36789;SDS011;22740;52.182;8.780;2022-12-18T21:22:32;23.23;;;10.68;;
36789;SDS011;22740;52.182;8.780;2022-12-18T21:28:37;25.48;;;10.90;;
36789;SDS011;22740;52.182;8.780;2022-12-18T21:34:38;26.30;;;11.00;;
36789;SDS011;22740;52.182;8.780;2022-12-18T21:40:48;24.92;;;11.13;;
36789;SDS011;22740;52.182;8.780;2022-12-18T21:46:49;24.15;;;12.07;;
36789;SDS011;22740;52.182;8.780;2022-12-18T21:53:00;22.17;;;11.68;;
36789;SDS011;22740;52.182;8.780;2022-12-18T21:59:01;23.73;;;11.73;;
36789;SDS011;22740;52.182;8.780;2022-12-18T22:05:03;24.48;;;12.07;;
36789;SDS011;22740;52.182;8.780;2022-12-18T22:11:05;26.30;;;12.20;;
36789;SDS011;22740;52.182;8.780;2022-12-18T22:17:08;26.15;;;11.77;;
36789;SDS011;22740;52.182;8.780;2022-12-18T22:23:11;25.52;;;12.32;;
36789;SDS011;22740;52.182;8.780;2022-12-18T22:29:14;26.00;;;12.80;;
36789;SDS011;22740;52.182;8.780;2022-12-18T22:35:36;26.05;;;11.77;;
36789;SDS011;22740;52.182;8.780;2022-12-18T22:41:41;24.80;;;11.82;;
36789;SDS011;22740;52.182;8.780;2022-12-18T22:47:43;24.10;;;12.35;;
36789;SDS011;22740;52.182;8.780;2022-12-18T22:53:44;26.52;;;12.52;;
36789;SDS011;22740;52.182;8.780;2022-12-18T22:59:49;23.97;;;10.90;;
36789;SDS011;22740;52.182;8.780;2022-12-18T23:05:51;24.98;;;12.15;;
36789;SDS011;22740;52.182;8.780;2022-12-18T23:11:54;29.17;;;12.90;;
36789;SDS011;22740;52.182;8.780;2022-12-18T23:17:57;25.10;;;12.10;;
36789;SDS011;22740;52.182;8.780;2022-12-18T23:23:59;28.42;;;12.60;;
36789;SDS011;22740;52.182;8.780;2022-12-18T23:30:01;28.13;;;13.35;;
36789;SDS011;22740;52.182;8.780;2022-12-18T23:36:03;25.05;;;13.00;;
36789;SDS011;22740;52.182;8.780;2022-12-18T23:42:06;27.23;;;12.40;;
36789;SDS011;22740;52.182;8.780;2022-12-18T23:48:07;33.38;;;15.90;;
36789;SDS011;22740;52.182;8.780;2022-12-18T23:54:09;28.98;;;14.40;;
